Time;durP1;ratioP1;P1;durP2;ratioP2;P2;SDS_P1;SDS_P2;PMS_P1;PMS_P2;Temp;Humidity;BMP_temperature;BMP_pressure;BME280_temperature;BME280_humidity;BME280_pressure;Samples;Min_cycle;Max_cycle;Signal;HPM_P1;HPM_P2
2022/05/16 00:02:00;;;;;;;18.88;8.02;;;11.50;91.00;;;;;;6285728;22;20011;-74
2022/05/16 00:04:25;;;;;;;20.92;7.55;;;11.50;91.00;;;;;;6311486;22;20014;-73
2022/05/16 00:06:51;;;;;;;20.08;8.00;;;11.50;90.80;;;;;;6285473;22;20321;-74
2022/05/16 00:09:17;;;;;;;20.00;7.97;;;11.60;90.80;;;;;;6311466;22;20429;-75
2022/05/16 00:11:42;;;;;;;15.93;8.57;;;11.40;90.70;;;;;;6285656;22;20576;-74
2022/05/16 00:14:08;;;;;;;17.53;7.47;;;11.40;90.70;;;;;;6286129;22;20317;-74
2022/05/16 00:16:34;;;;;;;22.70;8.82;;;11.40;90.80;;;;;;6311754;22;20320;-73
2022/05/16 00:18:59;;;;;;;18.20;7.70;;;11.30;90.80;;;;;;6338859;22;20007;-74
2022/05/16 00:21:25;;;;;;;26.53;8.33;;;11.30;91.00;;;;;;6311656;22;20428;-73
2022/05/16 00:23:51;;;;;;;19.88;8.20;;;11.40;90.90;;;;;;6311457;22;20053;-72
2022/05/16 00:26:18;;;;;;;19.45;8.82;;;11.30;90.70;;;;;;6339540;22;20011;-73
2022/05/16 00:28:43;;;;;;;;;;;11.30;91.00;;;;;;6313825;22;20007;-74
2022/05/16 00:31:09;;;;;;;17.45;7.90;;;11.30;90.80;;;;;;6313201;22;20280;-76
2022/05/16 00:33:35;;;;;;;20.35;8.48;;;11.30;91.00;;;;;;6287423;22;20431;-74
2022/05/16 00:36:01;;;;;;;20.30;8.73;;;11.30;90.80;;;;;;6313283;22;20077;-73
2022/05/16 00:38:27;;;;;;;17.90;7.97;;;11.40;90.60;;;;;;6312731;22;20007;-73
2022/05/16 00:40:55;;;;;;;18.67;7.72;;;11.30;90.60;;;;;;6287273;22;20015;-73
2022/05/16 00:43:41;;;;;;;17.88;7.65;;;11.30;90.60;;;;;;6287301;22;20417;-73
2022/05/16 00:46:07;;;;;;;15.90;7.63;;;11.30;90.50;;;;;;6313186;22;20010;-72
2022/05/16 00:48:33;;;;;;;19.30;8.55;;;11.30;90.60;;;;;;6312986;22;20355;-74
2022/05/16 00:51:00;;;;;;;22.95;8.43;;;11.60;91.00;;;;;;6287267;22;20113;-76
2022/05/16 00:53:25;;;;;;;16.80;7.88;;;11.40;90.60;;;;;;6313085;22;20056;-74
2022/05/16 00:55:51;;;;;;;18.02;7.70;;;11.40;90.70;;;;;;6340554;22;20014;-75
2022/05/16 00:58:17;;;;;;;16.92;7.15;;;11.30;90.80;;;;;;6340481;22;20015;-75
2022/05/16 01:00:45;;;;;;;19.67;8.52;;;11.50;90.70;;;;;;6312809;22;20033;-72
2022/05/16 01:06:05;;;;;;;19.48;7.55;;;11.50;90.50;;;;;;6312794;22;20014;-74
2022/05/16 01:08:33;;;;;;;16.35;6.57;;;11.60;90.30;;;;;;6312862;22;20359;-76
2022/05/16 01:11:03;;;;;;;14.38;7.13;;;11.60;90.20;;;;;;6287009;22;20018;-73
2022/05/16 01:13:30;;;;;;;12.65;7.47;;;11.70;90.10;;;;;;6312906;22;20015;-73
2022/05/16 01:15:59;;;;;;;21.50;7.45;;;11.80;90.00;;;;;;6312680;22;20325;-75
2022/05/16 01:18:25;;;;;;;18.77;6.80;;;11.70;89.90;;;;;;6287230;22;20022;-72
2022/05/16 01:21:17;;;;;;;;;;;11.70;89.80;;;;;;6287419;22;20011;-73
2022/05/16 01:24:00;;;;;;;18.35;8.07;;;11.70;89.90;;;;;;6265470;22;19917;-73
2022/05/16 01:26:28;;;;;;;14.27;6.90;;;11.60;89.90;;;;;;6312502;22;20014;-72
2022/05/16 01:28:54;;;;;;;19.52;7.03;;;11.60;89.70;;;;;;6287191;22;20093;-75
2022/05/16 01:31:20;;;;;;;16.52;7.07;;;11.60;90.10;;;;;;6286793;22;20011;-72
2022/05/16 01:33:46;;;;;;;19.42;8.05;;;11.60;90.00;;;;;;6312665;22;20090;-72
2022/05/16 01:36:12;;;;;;;15.20;7.03;;;11.60;90.10;;;;;;6287409;22;20378;-73
2022/05/16 01:38:39;;;;;;;13.40;6.78;;;11.60;90.10;;;;;;6312181;22;20257;-74
2022/05/16 01:41:11;;;;;;;12.27;7.13;;;11.60;89.90;;;;;;6339973;22;20060;-72
2022/05/16 01:43:42;;;;;;;15.60;6.88;;;11.70;89.90;;;;;;6312862;22;20344;-71
2022/05/16 01:46:10;;;;;;;20.77;7.03;;;11.70;89.70;;;;;;6312506;22;20413;-73
2022/05/16 01:48:37;;;;;;;15.27;6.25;;;11.70;89.50;;;;;;6286583;22;20075;-73
2022/05/16 01:51:10;;;;;;;15.77;6.63;;;11.70;89.20;;;;;;6312091;22;20015;-72
2022/05/16 01:53:37;;;;;;;16.98;7.00;;;11.70;89.20;;;;;;6312413;22;20010;-72
2022/05/16 01:56:03;;;;;;;17.75;6.72;;;11.80;88.90;;;;;;6312393;22;20007;-72
2022/05/16 01:58:29;;;;;;;12.30;6.45;;;11.70;88.70;;;;;;6311607;22;20006;-71
2022/05/16 02:00:55;;;;;;;14.55;6.65;;;11.80;88.70;;;;;;6312182;22;20102;-73
2022/05/16 02:03:21;;;;;;;15.65;6.55;;;11.80;88.20;;;;;;6312372;22;20042;-71
2022/05/16 02:05:47;;;;;;;11.65;5.93;;;11.80;88.60;;;;;;6312264;22;20366;-70
2022/05/16 02:08:14;;;;;;;14.77;5.82;;;11.80;88.10;;;;;;6312261;22;20014;-71
2022/05/16 02:10:41;;;;;;;12.40;6.00;;;11.60;88.10;;;;;;6312392;22;20029;-72
2022/05/16 02:13:08;;;;;;;13.80;5.93;;;11.70;87.90;;;;;;6311801;22;20014;-70
2022/05/16 02:15:36;;;;;;;15.50;6.10;;;11.70;87.60;;;;;;6311807;22;20090;-71
2022/05/16 02:18:04;;;;;;;15.55;5.20;;;11.70;87.50;;;;;;6312038;22;20014;-73
2022/05/16 02:20:30;;;;;;;12.32;5.28;;;11.70;86.80;;;;;;6312180;22;20007;-70
2022/05/16 02:25:43;;;;;;;13.82;5.30;;;11.80;85.80;;;;;;6312126;22;20434;-70
2022/05/16 02:28:11;;;;;;;11.20;4.95;;;11.90;85.60;;;;;;6311544;22;20010;-70
2022/05/16 02:30:37;;;;;;;11.18;4.90;;;12.00;84.80;;;;;;6286276;22;20095;-72
2022/05/16 02:33:03;;;;;;;;;;;12.10;84.20;;;;;;6312571;22;20018;-75
2022/05/16 02:35:30;;;;;;;15.73;5.03;;;12.10;83.60;;;;;;6312175;22;20225;-73
2022/05/16 02:37:58;;;;;;;12.52;5.70;;;12.10;84.00;;;;;;6311542;22;20042;-71
2022/05/16 02:40:29;;;;;;;8.23;4.80;;;12.30;83.00;;;;;;6339623;22;20019;-73
2022/05/16 02:42:55;;;;;;;23.70;5.10;;;12.30;82.40;;;;;;6286226;22;20444;-72
2022/05/16 02:45:24;;;;;;;16.40;5.60;;;12.30;82.30;;;;;;6286124;22;20014;-72
2022/05/16 02:47:50;;;;;;;11.23;4.90;;;12.30;82.10;;;;;;6286256;22;20021;-73
2022/05/16 02:50:18;;;;;;;9.93;5.20;;;12.30;82.00;;;;;;6285884;22;20317;-70
2022/05/16 02:52:44;;;;;;;15.07;5.68;;;12.30;82.10;;;;;;6285705;22;20018;-70
2022/05/16 02:55:10;;;;;;;17.52;5.70;;;12.30;82.30;;;;;;6311899;22;20052;-74
2022/05/16 02:57:36;;;;;;;10.90;5.38;;;12.20;82.20;;;;;;6311691;22;20006;-70
2022/05/16 03:00:05;;;;;;;14.02;5.93;;;12.20;82.30;;;;;;6339410;22;20011;-71
2022/05/16 03:02:31;;;;;;;13.63;6.03;;;12.20;83.10;;;;;;6286230;22;20018;-71
2022/05/16 03:04:56;;;;;;;16.35;6.22;;;12.20;82.20;;;;;;6311714;22;20132;-70
2022/05/16 03:07:22;;;;;;;10.32;5.13;;;12.20;82.40;;;;;;6339429;22;20014;-72
2022/05/16 03:09:48;;;;;;;12.48;5.85;;;12.20;82.20;;;;;;6311279;22;20046;-70
2022/05/16 03:12:14;;;;;;;11.63;5.13;;;12.10;82.30;;;;;;6286046;22;20018;-72
2022/05/16 03:14:40;;;;;;;14.50;5.80;;;12.10;82.30;;;;;;6311692;22;20437;-70
2022/05/16 03:17:06;;;;;;;15.00;5.15;;;12.10;82.40;;;;;;6311690;22;20080;-72
2022/05/16 03:19:35;;;;;;;9.98;5.25;;;12.10;82.30;;;;;;6285424;22;20425;-70
2022/05/16 03:22:02;;;;;;;16.77;5.15;;;12.10;82.20;;;;;;6311787;22;20374;-73
2022/05/16 03:24:27;;;;;;;14.93;5.50;;;12.10;81.80;;;;;;6311393;22;20018;-73
2022/05/16 03:26:53;;;;;;;11.77;5.22;;;12.10;81.60;;;;;;6285849;22;20042;-73
2022/05/16 03:29:22;;;;;;;12.65;5.63;;;12.10;81.30;;;;;;6285883;22;20007;-72
2022/05/16 03:31:47;;;;;;;12.77;4.40;;;12.10;81.50;;;;;;6285910;22;20068;-70
2022/05/16 03:34:13;;;;;;;12.43;5.17;;;12.20;81.20;;;;;;6285980;22;20363;-73
2022/05/16 03:36:39;;;;;;;15.40;5.20;;;12.10;81.40;;;;;;6311614;22;20094;-73
2022/05/16 03:41:51;;;;;;;11.63;4.25;;;12.10;81.30;;;;;;6311572;22;20015;-72
2022/05/16 03:44:18;;;;;;;9.75;4.75;;;12.00;81.30;;;;;;6285493;22;20086;-69
2022/05/16 03:46:43;;;;;;;10.18;4.82;;;11.90;81.40;;;;;;6311358;22;20014;-72
2022/05/16 03:49:10;;;;;;;17.33;4.70;;;12.00;81.50;;;;;;6285324;22;20010;-72
2022/05/16 03:51:36;;;;;;;9.20;4.53;;;12.00;81.40;;;;;;6311752;22;20042;-71
2022/05/16 03:54:02;;;;;;;12.93;4.28;;;12.00;81.10;;;;;;6285404;22;20007;-70
2022/05/16 03:56:29;;;;;;;11.73;4.60;;;12.10;80.60;;;;;;6311757;22;20011;-72
2022/05/16 03:58:55;;;;;;;;;;;12.10;80.80;;;;;;6285734;22;20026;-72
2022/05/16 04:01:21;;;;;;;9.77;4.40;;;12.20;80.40;;;;;;6311997;22;20205;-72
2022/05/16 04:03:47;;;;;;;12.60;4.25;;;12.20;80.20;;;;;;6287831;22;20113;-72
2022/05/16 04:06:16;;;;;;;10.00;4.63;;;12.20;80.50;;;;;;6287826;22;20523;-73
2022/05/16 04:08:42;;;;;;;9.52;4.18;;;12.20;81.00;;;;;;6313628;22;20259;-71
2022/05/16 04:11:09;;;;;;;8.98;4.10;;;12.20;80.10;;;;;;6287633;22;20085;-71
2022/05/16 04:13:36;;;;;;;13.75;3.90;;;12.20;79.70;;;;;;6287540;22;20017;-71
2022/05/16 04:16:03;;;;;;;8.88;4.15;;;12.20;79.90;;;;;;6313444;22;20060;-72
2022/05/16 04:18:28;;;;;;;;;;;12.30;79.30;;;;;;6341426;22;20042;-70
2022/05/16 04:20:54;;;;;;;9.77;3.53;;;12.30;79.10;;;;;;6340418;22;20240;-70
2022/05/16 04:23:20;;;;;;;11.05;3.45;;;12.40;78.70;;;;;;6287486;22;20046;-73
2022/05/16 04:25:46;;;;;;;14.63;4.55;;;12.40;79.00;;;;;;6313361;22;20060;-72
2022/05/16 04:28:12;;;;;;;8.65;3.63;;;12.40;79.00;;;;;;6313287;22;20019;-70
2022/05/16 04:30:39;;;;;;;9.00;3.53;;;12.40;78.60;;;;;;6287503;22;20007;-74
2022/05/16 04:33:06;;;;;;;11.70;4.30;;;12.50;78.60;;;;;;6287181;22;20018;-71
2022/05/16 04:35:32;;;;;;;9.60;3.80;;;12.50;78.20;;;;;;6287117;22;20011;-70
2022/05/16 04:37:58;;;;;;;14.30;4.00;;;12.60;77.90;;;;;;6312574;22;20015;-73
2022/05/16 04:40:24;;;;;;;10.20;3.80;;;12.60;77.80;;;;;;6313236;22;20358;-74
2022/05/16 04:42:49;;;;;;;13.82;3.50;;;12.70;77.20;;;;;;6313279;22;20047;-71
2022/05/16 04:45:21;;;;;;;9.68;3.50;;;12.80;77.70;;;;;;6313102;22;20015;-73
2022/05/16 04:47:50;;;;;;;10.38;3.42;;;12.90;77.30;;;;;;6287513;22;20086;-71
2022/05/16 04:50:29;;;;;;;7.40;3.78;;;13.00;77.30;;;;;;6313008;22;20015;-70
2022/05/16 04:52:56;;;;;;;12.27;3.75;;;13.00;76.40;;;;;;6287604;22;20015;-72
2022/05/16 04:55:22;;;;;;;;;;;13.10;76.20;;;;;;6313506;22;20018;-71
2022/05/16 04:57:47;;;;;;;13.20;3.67;;;13.20;75.70;;;;;;6287018;22;19910;-71
2022/05/16 05:00:15;;;;;;;9.65;3.55;;;13.40;75.40;;;;;;6312778;22;20321;-70
2022/05/16 05:02:40;;;;;;;7.68;3.10;;;13.50;75.00;;;;;;6312855;22;20021;-70
2022/05/16 05:05:08;;;;;;;12.00;3.85;;;13.50;74.70;;;;;;6312835;22;20006;-70
2022/05/16 05:07:35;;;;;;;11.32;3.30;;;13.70;74.00;;;;;;6312602;22;20060;-71
2022/05/16 05:15:30;;;;;;;10.07;3.60;;;14.00;72.70;;;;;;6340477;22;20021;-74
2022/05/16 05:17:56;;;;;;;8.32;3.35;;;14.00;72.10;;;;;;6312832;22;20015;-74
2022/05/16 05:20:22;;;;;;;15.52;3.45;;;14.00;71.80;;;;;;6286982;22;20056;-73
2022/05/16 05:22:49;;;;;;;10.98;3.50;;;13.90;71.80;;;;;;6340403;22;20496;-71
2022/05/16 05:25:19;;;;;;;8.68;2.83;;;13.80;72.30;;;;;;6339910;22;20023;-72
2022/05/16 05:27:46;;;;;;;9.30;2.95;;;13.70;72.70;;;;;;6286880;22;20019;-70
2022/05/16 05:30:17;;;;;;;10.77;3.60;;;13.70;72.90;;;;;;6312865;22;20073;-73
2022/05/16 05:32:43;;;;;;;11.00;3.53;;;13.70;73.30;;;;;;6313153;22;20003;-71
2022/05/16 05:35:10;;;;;;;8.38;3.03;;;13.70;73.00;;;;;;6312511;22;20482;-74
2022/05/16 05:37:36;;;;;;;12.02;3.83;;;13.70;72.80;;;;;;6312615;22;20064;-70
2022/05/16 05:40:04;;;;;;;;;;;13.60;73.20;;;;;;6312374;22;20371;-71
2022/05/16 05:42:31;;;;;;;8.57;3.17;;;13.60;73.20;;;;;;6312364;22;19911;-72
2022/05/16 05:44:58;;;;;;;16.33;3.65;;;13.60;73.40;;;;;;6312510;22;20025;-71
2022/05/16 05:47:25;;;;;;;13.18;3.75;;;13.60;73.70;;;;;;6312365;22;20429;-70
2022/05/16 05:49:51;;;;;;;12.57;3.83;;;13.80;73.10;;;;;;6312484;22;20006;-72
2022/05/16 05:52:17;;;;;;;9.18;3.58;;;14.10;72.70;;;;;;6312413;22;20328;-71
2022/05/16 05:54:44;;;;;;;9.68;3.63;;;14.50;72.20;;;;;;6286666;22;20429;-71
2022/05/16 05:57:09;;;;;;;10.15;3.85;;;14.80;71.00;;;;;;6312317;22;20021;-70
2022/05/16 05:59:35;;;;;;;11.27;4.03;;;15.10;69.80;;;;;;6311907;22;20007;-71
2022/05/16 06:02:01;;;;;;;8.07;3.25;;;15.40;69.60;;;;;;6340027;22;20014;-72
2022/05/16 06:04:27;;;;;;;11.88;3.63;;;15.60;68.00;;;;;;6311997;22;20006;-69
2022/05/16 06:06:53;;;;;;;7.70;3.53;;;15.80;68.00;;;;;;6286817;22;20060;-69
2022/05/16 06:09:18;;;;;;;11.55;3.90;;;16.00;66.80;;;;;;6339817;22;20081;-73
2022/05/16 06:11:44;;;;;;;10.25;3.58;;;16.20;66.30;;;;;;6286173;22;20071;-71
2022/05/16 06:14:10;;;;;;;12.77;3.92;;;16.40;65.10;;;;;;6311314;22;20429;-73
2022/05/16 06:16:36;;;;;;;12.57;3.42;;;16.50;65.80;;;;;;6285876;22;20428;-71
2022/05/16 06:19:01;;;;;;;;;;;16.60;64.80;;;;;;6312499;22;20067;-74
2022/05/16 06:21:27;;;;;;;9.70;4.03;;;16.50;64.90;;;;;;6286049;22;19911;-71
2022/05/16 06:23:53;;;;;;;7.55;3.20;;;16.40;65.00;;;;;;6311844;22;20026;-69
2022/05/16 06:26:18;;;;;;;10.85;3.70;;;16.30;65.60;;;;;;6312349;22;20082;-71
2022/05/16 06:28:44;;;;;;;15.52;4.18;;;16.10;65.70;;;;;;6312055;22;20022;-71
2022/05/16 06:31:10;;;;;;;11.10;3.80;;;16.10;66.10;;;;;;6312130;22;20093;-73
2022/05/16 06:33:36;;;;;;;10.43;4.07;;;16.10;65.60;;;;;;6312339;22;20014;-71
2022/05/16 06:36:03;;;;;;;;;;;16.40;65.00;;;;;;6312580;22;20413;-70
2022/05/16 06:38:32;;;;;;;7.90;3.30;;;16.70;64.60;;;;;;6311797;22;19917;-71
2022/05/16 06:40:59;;;;;;;12.70;3.80;;;17.00;64.70;;;;;;6311996;22;20011;-73
2022/05/16 06:43:27;;;;;;;9.05;3.63;;;17.20;63.90;;;;;;6339421;22;20022;-72
2022/05/16 06:45:54;;;;;;;10.43;3.92;;;17.30;64.00;;;;;;6312021;22;20021;-72
2022/05/16 06:48:20;;;;;;;;;;;17.40;63.60;;;;;;6312271;22;20014;-72
2022/05/16 06:50:47;;;;;;;12.40;3.67;;;17.70;62.20;;;;;;6311725;22;19946;-72
2022/05/16 06:53:29;;;;;;;14.38;3.88;;;17.80;61.20;;;;;;6311905;22;20017;-72
2022/05/16 06:55:56;;;;;;;10.45;3.63;;;18.00;60.80;;;;;;6311984;22;20010;-73
2022/05/16 06:58:23;;;;;;;14.75;3.80;;;18.20;59.80;;;;;;6311855;22;20011;-71
2022/05/16 07:00:50;;;;;;;8.18;3.70;;;18.20;60.40;;;;;;6311698;22;20410;-70
2022/05/16 07:03:16;;;;;;;13.23;3.60;;;18.20;59.50;;;;;;6286188;22;20015;-71
2022/05/16 07:05:42;;;;;;;;;;;18.00;59.60;;;;;;6311806;22;20014;-71
2022/05/16 07:08:08;;;;;;;11.88;3.10;;;18.20;60.70;;;;;;6286140;22;19918;-71
2022/05/16 07:10:33;;;;;;;15.82;3.58;;;18.30;59.30;;;;;;6311395;22;20434;-73
2022/05/16 07:13:00;;;;;;;11.65;3.50;;;18.50;59.90;;;;;;6285959;22;20018;-74
2022/05/16 07:15:26;;;;;;;7.65;3.08;;;18.60;59.20;;;;;;6339572;22;20033;-72
2022/05/16 07:17:52;;;;;;;7.65;3.40;;;18.70;59.20;;;;;;6310347;22;20011;-71
2022/05/16 07:20:21;;;;;;;9.27;3.60;;;18.80;59.70;;;;;;6338740;22;20014;-72
2022/05/16 07:22:52;;;;;;;11.85;3.92;;;18.60;58.20;;;;;;6286753;22;20018;-73
2022/05/16 07:25:28;;;;;;;15.40;4.22;;;19.00;59.30;;;;;;6285929;22;20006;-72
2022/05/16 07:27:59;;;;;;;9.50;3.60;;;19.10;59.30;;;;;;6260572;22;20021;-74
2022/05/16 07:30:31;;;;;;;11.88;3.35;;;19.10;57.90;;;;;;6285371;22;20022;-74
2022/05/16 07:32:58;;;;;;;8.80;3.47;;;19.40;58.80;;;;;;6310372;22;20010;-71
2022/05/16 07:35:27;;;;;;;12.52;3.72;;;19.40;58.50;;;;;;6284261;22;20015;-71
2022/05/16 07:37:54;;;;;;;16.08;3.83;;;19.20;57.10;;;;;;6283767;22;20015;-72
2022/05/16 07:40:22;;;;;;;13.77;3.58;;;19.30;58.10;;;;;;6309753;22;20014;-69
2022/05/16 07:42:51;;;;;;;10.88;3.58;;;19.30;58.10;;;;;;6284131;22;20006;-76
2022/05/16 07:45:17;;;;;;;7.97;3.05;;;19.40;58.50;;;;;;6283998;22;20007;-72
2022/05/16 07:47:43;;;;;;;10.00;3.25;;;19.60;56.50;;;;;;6283578;22;20009;-71
2022/05/16 07:50:09;;;;;;;9.40;3.20;;;19.70;56.90;;;;;;6309635;22;20432;-69
2022/05/16 07:52:37;;;;;;;7.00;3.28;;;19.90;58.00;;;;;;6309726;22;20060;-78
2022/05/16 08:03:14;;;;;;;7.60;2.70;;;20.20;55.90;;;;;;6181899;23;20146;-71
2022/05/16 08:05:46;;;;;;;10.02;3.22;;;20.00;56.10;;;;;;6184577;23;20048;-72
2022/05/16 08:18:52;;;;;;;12.57;4.38;;;20.40;56.20;;;;;;6179730;23;20078;-73
2022/05/16 08:21:46;;;;;;;10.90;3.28;;;20.60;55.60;;;;;;6155868;23;20486;-74
2022/05/16 08:24:14;;;;;;;13.02;3.20;;;20.80;55.40;;;;;;6310479;22;20020;-73
2022/05/16 08:26:42;;;;;;;9.88;3.47;;;21.00;55.10;;;;;;6311045;22;20132;-72
2022/05/16 08:29:08;;;;;;;10.95;2.78;;;21.00;53.90;;;;;;6285667;22;20286;-71
2022/05/16 08:31:40;;;;;;;7.22;3.08;;;21.10;54.20;;;;;;6310729;22;20015;-72
2022/05/16 08:34:06;;;;;;;13.27;3.80;;;21.40;55.00;;;;;;6285116;22;20014;-72
2022/05/16 08:45:34;;;;;;;13.20;3.28;;;21.20;54.30;;;;;;6305381;22;20014;-83
2022/05/16 08:48:24;;;;;;;11.43;3.53;;;21.00;55.10;;;;;;6279152;22;20022;-77
2022/05/16 08:51:11;;;;;;;9.75;3.92;;;21.00;55.10;;;;;;6280405;22;20007;-74
2022/05/16 08:57:53;;;;;;;13.25;3.50;;;21.50;55.20;;;;;;6250959;22;20381;-77
2022/05/16 09:00:57;;;;;;;24.13;3.80;;;21.70;55.20;;;;;;6282564;22;20030;-77
2022/05/16 09:07:01;;;;;;;12.35;3.50;;;21.80;53.60;;;;;;6229215;23;20012;-76
2022/05/16 09:09:44;;;;;;;11.35;3.33;;;22.00;54.60;;;;;;6199819;23;20014;-76
2022/05/16 09:12:17;;;;;;;12.07;3.10;;;22.30;53.40;;;;;;6260999;22;20003;-78
2022/05/16 09:15:11;;;;;;;14.23;3.60;;;22.60;51.90;;;;;;6307906;22;20103;-80
2022/05/16 09:17:58;;;;;;;12.02;3.22;;;22.70;52.60;;;;;;6281809;22;20017;-80
2022/05/16 09:20:43;;;;;;;12.43;3.25;;;22.80;51.40;;;;;;6281501;22;20018;-80
2022/05/16 09:23:30;;;;;;;14.98;3.50;;;22.90;50.50;;;;;;6307287;22;20052;-78
2022/05/16 09:26:43;;;;;;;9.15;3.35;;;23.00;51.00;;;;;;6281958;22;20003;-76
2022/05/16 09:29:45;;;;;;;11.55;3.97;;;22.90;51.00;;;;;;6292927;22;20011;-74
